createdAt,value
2023-03-19T00:01:57.250Z,6.80
2023-03-19T00:06:59.461Z,6.90
2023-03-19T00:12:01.278Z,6.80
2023-03-19T00:17:03.067Z,6.80
2023-03-19T00:22:05.181Z,6.80
2023-03-19T00:27:06.937Z,6.70
2023-03-19T00:32:09.605Z,6.70
2023-03-19T00:37:12.317Z,6.70
2023-03-19T00:42:14.090Z,6.70
2023-03-19T00:47:15.810Z,6.70
2023-03-19T00:52:20.616Z,6.70
2023-03-19T00:57:22.393Z,6.70
2023-03-19T01:02:26.093Z,6.60
2023-03-19T01:07:28.037Z,6.60
2023-03-19T01:12:29.862Z,6.70
2023-03-19T01:17:31.637Z,6.60
2023-03-19T01:22:36.718Z,6.60
2023-03-19T01:27:39.141Z,6.60
2023-03-19T01:32:40.967Z,6.50
2023-03-19T01:37:42.845Z,6.50
2023-03-19T01:43:17.432Z,6.50
2023-03-19T01:48:38.236Z,6.60
2023-03-19T01:53:43.674Z,6.50
2023-03-19T01:58:48.638Z,6.50
2023-03-19T02:03:52.681Z,6.40
2023-03-19T02:08:56.671Z,6.30
2023-03-19T02:13:58.549Z,6.30
2023-03-19T02:19:01.458Z,6.10
2023-03-19T02:24:14.405Z,6.00
2023-03-19T02:29:16.656Z,6.00
2023-03-19T02:34:21.458Z,6.00
2023-03-19T02:39:32.980Z,5.80
2023-03-19T02:44:34.686Z,5.50
2023-03-19T02:49:36.447Z,5.40
2023-03-19T02:54:38.413Z,5.60
2023-03-19T02:59:40.445Z,5.50
2023-03-19T03:04:42.208Z,5.40
2023-03-19T03:09:44.308Z,5.40
2023-03-19T03:14:46.037Z,5.30
2023-03-19T03:19:47.949Z,5.30
2023-03-19T03:24:49.698Z,5.20
2023-03-19T03:29:51.551Z,5.10
2023-03-19T03:34:53.294Z,5.10
2023-03-19T03:39:55.061Z,5.10
2023-03-19T03:44:56.777Z,5.30
2023-03-19T03:49:58.826Z,5.20
2023-03-19T03:55:01.595Z,5.20
2023-03-19T04:00:04.748Z,5.40
2023-03-19T04:05:07.420Z,5.50
2023-03-19T04:10:10.832Z,5.40
2023-03-19T04:15:12.826Z,5.50
2023-03-19T04:20:16.341Z,5.30
2023-03-19T04:25:18.975Z,5.40
2023-03-19T04:30:20.806Z,5.40
2023-03-19T04:35:22.870Z,5.40
2023-03-19T04:40:25.168Z,5.30
2023-03-19T04:45:27.242Z,5.40
2023-03-19T04:50:29.300Z,5.40
2023-03-19T04:55:31.075Z,5.50
2023-03-19T05:00:33.353Z,5.50
2023-03-19T05:05:35.271Z,5.50
2023-03-19T05:10:37.703Z,5.50
2023-03-19T05:15:43.563Z,5.60
2023-03-19T05:20:45.624Z,5.60
2023-03-19T05:25:47.839Z,5.60
2023-03-19T05:30:49.758Z,5.80
2023-03-19T05:35:51.794Z,5.90
2023-03-19T05:40:54.806Z,6.10
2023-03-19T05:45:56.909Z,6.40
2023-03-19T05:50:59.413Z,6.50
2023-03-19T05:56:01.260Z,6.50
2023-03-19T06:01:03.325Z,6.50
2023-03-19T06:06:05.706Z,6.40
2023-03-19T06:11:08.075Z,6.40
2023-03-19T06:16:10.526Z,6.40
2023-03-19T06:21:12.339Z,6.60
2023-03-19T06:26:14.089Z,6.70
2023-03-19T06:31:15.904Z,6.80
2023-03-19T06:36:17.940Z,6.80
2023-03-19T06:41:19.757Z,7.00
2023-03-19T06:46:21.573Z,7.00
2023-03-19T06:51:23.478Z,7.00
2023-03-19T06:56:25.213Z,6.90
2023-03-19T07:01:27.103Z,7.10
2023-03-19T07:06:30.138Z,7.10
2023-03-19T07:11:35.609Z,7.10
2023-03-19T07:16:37.807Z,7.20
2023-03-19T07:21:39.568Z,7.30
2023-03-19T07:26:42.323Z,7.30
2023-03-19T07:31:44.152Z,7.40
2023-03-19T07:36:47.230Z,7.60
2023-03-19T07:41:49.175Z,7.60
2023-03-19T07:46:51.056Z,7.60
2023-03-19T07:51:52.824Z,7.60
2023-03-19T07:56:54.629Z,8.00
2023-03-19T08:01:56.376Z,8.20
2023-03-19T08:06:58.145Z,8.10
2023-03-19T08:12:00.085Z,8.30
2023-03-19T08:17:02.145Z,8.30
2023-03-19T08:22:04.092Z,8.40
2023-03-19T08:27:05.977Z,8.30
2023-03-19T08:32:08.080Z,8.20
2023-03-19T08:37:09.899Z,8.30
2023-03-19T08:42:11.700Z,8.80
2023-03-19T08:47:13.635Z,8.80
2023-03-19T08:52:15.442Z,8.90
2023-03-19T08:57:17.302Z,9.30
2023-03-19T09:02:19.438Z,9.00
2023-03-19T09:07:21.264Z,8.60
2023-03-19T09:12:23.274Z,8.60
2023-03-19T09:17:25.102Z,8.70
2023-03-19T09:22:26.849Z,8.80
2023-03-19T09:27:28.828Z,8.70
2023-03-19T09:32:31.132Z,8.90
2023-03-19T09:37:32.889Z,9.10
2023-03-19T09:43:13.834Z,9.30
2023-03-19T09:48:28.882Z,9.20
2023-03-19T09:53:39.800Z,8.80
2023-03-19T09:58:41.770Z,8.60
2023-03-19T10:04:06.549Z,8.50
2023-03-19T10:09:12.061Z,8.40
2023-03-19T10:14:32.637Z,8.40
2023-03-19T10:19:52.321Z,8.40
2023-03-19T10:24:57.065Z,8.30
2023-03-19T10:29:59.029Z,8.10
2023-03-19T10:35:07.480Z,8.20
2023-03-19T10:40:37.413Z,8.40
2023-03-19T10:45:39.683Z,8.70
2023-03-19T10:50:52.823Z,9.00
2023-03-19T10:55:57.904Z,9.30
2023-03-19T11:01:06.440Z,9.40
2023-03-19T11:06:25.105Z,9.70
2023-03-19T11:11:37.483Z,9.60
2023-03-19T11:16:59.692Z,9.50
2023-03-19T11:22:10.512Z,9.40
2023-03-19T11:27:12.250Z,9.50
2023-03-19T11:32:23.053Z,9.50
2023-03-19T11:37:50.482Z,9.50
2023-03-19T11:43:13.446Z,9.40
2023-03-19T11:48:28.798Z,9.60
2023-03-19T11:53:38.293Z,10.00
2023-03-19T11:59:10.931Z,10.10
2023-03-19T12:04:28.152Z,10.00
2023-03-19T12:09:41.154Z,9.70
2023-03-19T12:15:12.292Z,9.60
2023-03-19T12:20:24.353Z,9.60
2023-03-19T12:26:04.535Z,9.60
2023-03-19T12:31:17.767Z,9.60
2023-03-19T12:36:25.546Z,9.40
2023-03-19T12:41:30.079Z,9.60
2023-03-19T12:46:34.372Z,9.70
2023-03-19T12:51:41.944Z,9.70
2023-03-19T12:56:55.782Z,9.80
2023-03-19T13:02:23.872Z,9.90
2023-03-19T13:07:36.157Z,10.00
2023-03-19T13:12:39.311Z,10.00
2023-03-19T13:18:03.446Z,10.00
2023-03-19T13:23:07.965Z,9.80
2023-03-19T13:28:21.199Z,10.00
2023-03-19T13:33:23.115Z,10.00
2023-03-19T13:38:27.755Z,9.90
2023-03-19T13:43:29.725Z,9.80
2023-03-19T13:48:37.679Z,9.80
2023-03-19T13:54:04.398Z,9.80
2023-03-19T13:59:15.315Z,10.00
2023-03-19T14:04:36.608Z,10.20
2023-03-19T14:09:44.229Z,10.20
2023-03-19T14:14:48.731Z,10.20
2023-03-19T14:19:52.459Z,10.10
2023-03-19T14:25:05.972Z,10.10
2023-03-19T14:30:36.898Z,10.00
2023-03-19T14:35:46.385Z,9.90
2023-03-19T14:40:51.894Z,9.90
2023-03-19T14:45:56.819Z,10.00
2023-03-19T14:51:25.738Z,10.00
2023-03-19T14:56:34.993Z,9.90
2023-03-19T15:01:41.602Z,9.80
2023-03-19T15:06:56.134Z,9.80
2023-03-19T15:12:07.283Z,9.70
2023-03-19T15:17:21.450Z,9.60
2023-03-19T15:22:31.374Z,9.50
2023-03-19T15:27:33.452Z,9.60
2023-03-19T15:33:10.468Z,9.70
2023-03-19T15:38:08.728Z,9.50
2023-03-19T15:43:13.092Z,9.40
2023-03-19T15:48:21.940Z,9.50
2023-03-19T15:53:26.073Z,9.40
2023-03-19T15:58:31.770Z,9.40
2023-03-19T16:03:37.725Z,9.40
2023-03-19T16:08:47.898Z,9.20
2023-03-19T16:14:24.983Z,9.20
2023-03-19T16:19:38.420Z,9.20
2023-03-19T16:24:42.976Z,9.10
2023-03-19T16:29:59.187Z,9.00
2023-03-19T16:35:15.846Z,8.90
2023-03-19T16:40:17.627Z,8.90
2023-03-19T16:45:25.058Z,8.80
2023-03-19T16:50:36.818Z,8.70
2023-03-19T16:55:39.064Z,8.60
2023-03-19T17:00:43.224Z,8.60
2023-03-19T17:05:47.122Z,8.60
2023-03-19T17:10:51.758Z,8.60
2023-03-19T17:15:54.717Z,8.50
2023-03-19T17:21:05.839Z,8.40
2023-03-19T17:26:21.675Z,8.40
2023-03-19T17:31:31.999Z,8.40
2023-03-19T17:36:34.153Z,8.30
2023-03-19T17:41:36.151Z,8.30
2023-03-19T17:46:40.728Z,8.30
2023-03-19T17:51:42.569Z,8.20
2023-03-19T17:56:44.409Z,8.30
2023-03-19T18:01:48.878Z,8.50
2023-03-19T18:06:56.900Z,8.40
2023-03-19T18:11:58.690Z,8.40
2023-03-19T18:17:00.869Z,8.30
2023-03-19T18:22:06.114Z,8.20
2023-03-19T18:27:07.952Z,7.90
2023-03-19T18:32:16.096Z,7.80
2023-03-19T18:37:18.404Z,7.60
2023-03-19T18:42:20.163Z,7.40
2023-03-19T18:47:22.289Z,7.10
2023-03-19T18:52:24.034Z,6.80
2023-03-19T18:57:26.124Z,6.50
2023-03-19T19:02:32.600Z,6.30
2023-03-19T19:07:34.396Z,6.20
2023-03-19T19:12:39.462Z,6.10
2023-03-19T19:17:42.125Z,5.90
2023-03-19T19:22:44.108Z,5.80
2023-03-19T19:27:48.084Z,5.70
2023-03-19T19:32:50.004Z,5.60
2023-03-19T19:37:52.594Z,5.50
2023-03-19T19:42:54.567Z,5.30
2023-03-19T19:47:56.933Z,5.30
2023-03-19T19:52:58.702Z,5.20
2023-03-19T19:58:01.956Z,5.10
2023-03-19T20:03:04.240Z,5.00
2023-03-19T20:08:06.398Z,5.20
2023-03-19T20:13:21.396Z,5.40
2023-03-19T20:18:24.840Z,5.50
2023-03-19T20:23:26.899Z,5.60
2023-03-19T20:28:34.050Z,5.50
2023-03-19T20:33:37.463Z,5.60
2023-03-19T20:38:39.444Z,5.70
2023-03-19T20:43:41.206Z,5.70
2023-03-19T20:48:42.935Z,5.70
2023-03-19T20:53:44.752Z,5.60
2023-03-19T20:58:46.885Z,5.50
2023-03-19T21:03:48.601Z,5.40
2023-03-19T21:08:54.479Z,5.40
2023-03-19T21:13:56.392Z,5.90
2023-03-19T21:18:59.446Z,5.80
2023-03-19T21:24:13.686Z,5.80
2023-03-19T21:29:33.188Z,5.90
2023-03-19T21:34:35.139Z,6.00
2023-03-19T21:39:36.874Z,6.20
2023-03-19T21:44:38.814Z,6.10
2023-03-19T21:49:41.028Z,6.40
2023-03-19T21:54:42.757Z,7.00
2023-03-19T21:59:45.507Z,7.30
2023-03-19T22:04:47.225Z,7.30
2023-03-19T22:09:48.954Z,7.50
2023-03-19T22:14:50.796Z,7.50
2023-03-19T22:19:52.617Z,7.50
2023-03-19T22:24:56.398Z,7.50
2023-03-19T22:30:00.903Z,7.50
2023-03-19T22:35:04.798Z,7.50
2023-03-19T22:40:07.213Z,7.50
2023-03-19T22:45:30.684Z,7.50
2023-03-19T22:50:32.905Z,7.50
2023-03-19T22:55:37.029Z,7.40
2023-03-19T23:00:39.032Z,7.50
2023-03-19T23:05:43.610Z,7.40
2023-03-19T23:10:47.261Z,7.50
2023-03-19T23:15:59.983Z,7.50
2023-03-19T23:21:02.751Z,7.50
2023-03-19T23:26:04.766Z,7.50
2023-03-19T23:31:10.104Z,7.60
2023-03-19T23:36:12.542Z,7.60
2023-03-19T23:41:25.023Z,7.60
2023-03-19T23:46:28.000Z,7.60
2023-03-19T23:51:29.863Z,7.60
2023-03-19T23:56:31.977Z,7.60
